createdAt,value
2023-04-18T00:00:51.406Z,88.87
2023-04-18T00:05:41.719Z,87.91
2023-04-18T00:10:31.311Z,86.72
2023-04-18T00:15:21.461Z,89.96
2023-04-18T00:20:14.402Z,90.01
2023-04-18T00:25:04.965Z,89.50
2023-04-18T00:29:54.597Z,88.20
2023-04-18T00:34:44.272Z,87.22
2023-04-18T00:39:45.715Z,88.14
2023-04-18T00:44:35.846Z,86.80
2023-04-18T00:49:27.707Z,86.33
2023-04-18T00:54:19.496Z,85.92
2023-04-18T00:59:12.701Z,85.76
2023-04-18T01:04:02.894Z,83.91
2023-04-18T01:08:54.154Z,84.22
2023-04-18T01:13:43.781Z,83.39
2023-04-18T01:18:40.474Z,82.59
2023-04-18T01:23:33.167Z,82.78
2023-04-18T01:28:27.878Z,82.06
2023-04-18T01:33:19.032Z,81.20
2023-04-18T01:38:10.007Z,80.76
2023-04-18T01:43:00.094Z,78.51
2023-04-18T01:47:54.302Z,77.35
2023-04-18T01:52:43.832Z,75.64
2023-04-18T01:57:33.922Z,75.44
2023-04-18T02:02:23.672Z,75.59
2023-04-18T02:07:17.300Z,74.58
2023-04-18T02:12:07.155Z,73.93
2023-04-18T02:16:56.895Z,72.83
2023-04-18T02:21:46.632Z,71.16
2023-04-18T02:26:40.162Z,71.27
2023-04-18T02:31:29.992Z,70.53
2023-04-18T02:36:19.660Z,70.10
2023-04-18T02:41:09.534Z,69.54
2023-04-18T02:46:03.388Z,69.98
2023-04-18T02:50:53.547Z,70.06
2023-04-18T02:55:43.259Z,70.36
2023-04-18T03:00:33.233Z,70.94
2023-04-18T03:05:43.260Z,70.55
2023-04-18T03:10:33.299Z,70.28
2023-04-18T03:15:23.423Z,70.00
2023-04-18T03:20:13.636Z,69.91
2023-04-18T03:25:07.530Z,69.51
2023-04-18T03:30:05.503Z,69.72
2023-04-18T03:34:57.233Z,68.93
2023-04-18T03:39:49.175Z,68.36
2023-04-18T03:44:41.967Z,68.40
2023-04-18T03:49:32.293Z,68.08
2023-04-18T03:54:22.403Z,67.53
2023-04-18T03:59:12.813Z,67.84
2023-04-18T04:04:09.566Z,67.76
2023-04-18T04:08:59.387Z,67.66
2023-04-18T04:13:51.460Z,67.90
2023-04-18T04:18:45.346Z,68.20
2023-04-18T04:23:38.899Z,68.34
2023-04-18T04:28:28.920Z,68.67
2023-04-18T04:33:25.724Z,68.23
2023-04-18T04:38:20.299Z,68.94
2023-04-18T04:43:15.802Z,68.86
2023-04-18T04:48:07.769Z,69.04
2023-04-18T04:52:58.642Z,68.78
2023-04-18T04:57:48.287Z,68.91
2023-04-18T05:03:07.356Z,68.47
2023-04-18T05:07:57.593Z,68.86
2023-04-18T05:12:47.437Z,68.94
2023-04-18T05:17:37.294Z,69.26
2023-04-18T05:22:29.665Z,69.03
2023-04-18T05:27:19.574Z,69.75
2023-04-18T05:32:09.762Z,69.86
2023-04-18T05:37:00.288Z,70.31
2023-04-18T05:41:53.088Z,70.04
2023-04-18T05:46:43.141Z,70.78
2023-04-18T05:51:33.080Z,70.09
2023-04-18T05:56:23.185Z,70.77
2023-04-18T06:01:16.590Z,70.62
2023-04-18T06:06:06.895Z,71.05
2023-04-18T06:10:56.645Z,71.56
2023-04-18T06:15:46.532Z,71.81
2023-04-18T06:20:39.218Z,71.33
2023-04-18T06:25:28.828Z,72.23
2023-04-18T06:30:22.248Z,71.56
2023-04-18T06:35:12.783Z,71.89
2023-04-18T06:40:05.498Z,71.34
2023-04-18T06:44:55.935Z,72.59
2023-04-18T06:49:48.416Z,71.27
2023-04-18T06:54:41.028Z,70.49
2023-04-18T06:59:34.048Z,70.82
2023-04-18T07:04:25.336Z,70.89
2023-04-18T07:09:15.248Z,70.83
2023-04-18T07:14:12.839Z,70.62
2023-04-18T07:19:05.714Z,71.32
2023-04-18T07:23:55.857Z,71.38
2023-04-18T07:28:45.929Z,71.32
2023-04-18T07:33:36.766Z,71.13
2023-04-18T07:38:32.982Z,70.51
2023-04-18T07:43:22.891Z,70.27
2023-04-18T07:48:12.935Z,70.75
2023-04-18T07:53:04.043Z,70.83
2023-04-18T07:57:56.663Z,70.44
2023-04-18T08:02:46.600Z,69.47
2023-04-18T08:07:37.510Z,70.21
2023-04-18T08:12:27.798Z,69.66
2023-04-18T08:17:20.895Z,69.06
2023-04-18T08:22:18.456Z,69.81
2023-04-18T08:27:08.896Z,70.20
2023-04-18T08:31:59.919Z,69.93
2023-04-18T08:36:56.879Z,69.81
2023-04-18T08:41:57.037Z,69.00
2023-04-18T08:46:47.399Z,67.19
2023-04-18T08:51:37.280Z,65.30
2023-04-18T08:56:32.136Z,64.12
2023-04-18T09:01:23.228Z,65.30
2023-04-18T09:06:19.413Z,64.85
2023-04-18T09:11:44.069Z,63.76
2023-04-18T09:16:51.509Z,63.06
2023-04-18T09:21:49.009Z,63.94
2023-04-18T09:26:39.663Z,64.85
2023-04-18T09:31:32.033Z,63.19
2023-04-18T09:36:27.667Z,63.49
2023-04-18T09:41:21.250Z,62.94
2023-04-18T09:46:12.803Z,63.54
2023-04-18T09:51:10.561Z,61.02
2023-04-18T09:56:03.779Z,60.78
2023-04-18T10:00:56.421Z,60.06
2023-04-18T10:05:47.714Z,59.91
2023-04-18T10:10:39.073Z,59.74
2023-04-18T10:15:36.935Z,58.20
2023-04-18T10:20:28.971Z,57.84
2023-04-18T10:25:50.066Z,55.44
2023-04-18T10:30:59.971Z,54.66
2023-04-18T10:36:34.019Z,53.56
2023-04-18T10:41:27.178Z,51.96
2023-04-18T10:46:31.066Z,52.64
2023-04-18T10:51:25.097Z,53.44
2023-04-18T10:56:19.550Z,52.98
2023-04-18T11:01:11.017Z,52.62
2023-04-18T11:06:21.426Z,53.18
2023-04-18T11:11:11.743Z,53.98
2023-04-18T11:16:01.847Z,55.09
2023-04-18T11:20:53.271Z,53.23
2023-04-18T11:25:46.064Z,51.90
2023-04-18T11:30:40.470Z,52.28
2023-04-18T11:35:31.950Z,52.41
2023-04-18T11:40:23.486Z,51.83
2023-04-18T11:45:18.344Z,51.93
2023-04-18T11:50:11.487Z,51.58
2023-04-18T11:55:13.729Z,52.19
2023-04-18T12:00:05.527Z,52.64
2023-04-18T12:05:03.373Z,53.46
2023-04-18T12:09:55.535Z,52.67
2023-04-18T12:14:46.373Z,51.52
2023-04-18T12:19:36.658Z,51.92
2023-04-18T12:24:29.612Z,53.05
2023-04-18T12:29:19.647Z,53.81
2023-04-18T12:34:09.556Z,53.65
2023-04-18T12:38:59.567Z,53.55
2023-04-18T12:43:52.536Z,52.91
2023-04-18T12:48:45.233Z,54.07
2023-04-18T12:53:35.207Z,55.04
2023-04-18T12:58:28.130Z,56.06
2023-04-18T13:03:22.494Z,57.13
2023-04-18T13:08:17.530Z,57.11
2023-04-18T13:13:08.046Z,57.76
2023-04-18T13:18:06.413Z,58.56
2023-04-18T13:22:59.282Z,58.47
2023-04-18T13:27:53.010Z,58.47
2023-04-18T13:32:44.140Z,58.50
2023-04-18T13:37:37.884Z,58.87
2023-04-18T13:42:31.560Z,58.52
2023-04-18T13:47:22.270Z,58.01
2023-04-18T13:52:12.260Z,57.81
2023-04-18T13:57:11.593Z,56.77
2023-04-18T14:02:04.397Z,55.73
2023-04-18T14:06:54.585Z,55.63
2023-04-18T14:11:46.507Z,54.73
2023-04-18T14:16:36.869Z,54.04
2023-04-18T14:21:33.383Z,54.58
2023-04-18T14:26:24.543Z,54.81
2023-04-18T14:31:14.560Z,55.17
2023-04-18T14:36:12.255Z,56.54
2023-04-18T14:41:07.352Z,56.75
2023-04-18T14:45:59.012Z,56.15
2023-04-18T14:50:49.532Z,56.95
2023-04-18T14:55:39.461Z,56.98
2023-04-18T15:00:33.320Z,57.19
2023-04-18T15:05:24.068Z,58.30
2023-04-18T15:10:15.541Z,56.82
2023-04-18T15:15:05.413Z,56.34
2023-04-18T15:19:57.870Z,55.48
2023-04-18T15:24:47.781Z,55.04
2023-04-18T15:29:38.478Z,55.51
2023-04-18T15:34:28.651Z,56.22
2023-04-18T15:39:24.629Z,55.25
2023-04-18T15:44:16.869Z,56.17
2023-04-18T15:49:06.749Z,56.14
2023-04-18T15:53:56.995Z,56.91
2023-04-18T15:58:49.438Z,56.64
2023-04-18T16:03:39.846Z,56.20
2023-04-18T16:08:31.927Z,55.55
2023-04-18T16:13:23.103Z,54.90
2023-04-18T16:18:15.526Z,55.96
2023-04-18T16:23:05.623Z,55.05
2023-04-18T16:27:55.516Z,55.04
2023-04-18T16:32:46.922Z,55.46
2023-04-18T16:37:39.591Z,54.89
2023-04-18T16:42:29.535Z,54.03
2023-04-18T16:47:20.630Z,54.43
2023-04-18T16:52:10.739Z,54.70
2023-04-18T16:57:03.561Z,54.86
2023-04-18T17:01:53.628Z,55.01
2023-04-18T17:06:44.182Z,55.05
2023-04-18T17:11:38.785Z,53.96
2023-04-18T17:16:32.200Z,53.49
2023-04-18T17:21:22.033Z,54.11
2023-04-18T17:26:12.236Z,54.49
2023-04-18T17:31:02.217Z,54.18
2023-04-18T17:35:54.770Z,54.58
2023-04-18T17:40:45.099Z,55.27
2023-04-18T17:45:35.233Z,56.24
2023-04-18T17:50:25.490Z,56.71
2023-04-18T17:55:18.281Z,55.67
2023-04-18T18:00:12.005Z,55.59
2023-04-18T18:05:05.940Z,56.53
2023-04-18T18:09:56.141Z,57.28
2023-04-18T18:14:48.921Z,57.52
2023-04-18T18:19:39.192Z,58.98
2023-04-18T18:24:29.263Z,59.03
2023-04-18T18:29:19.525Z,59.67
2023-04-18T18:34:11.924Z,60.06
2023-04-18T18:39:01.931Z,61.60
2023-04-18T18:43:51.877Z,62.08
2023-04-18T18:48:41.780Z,61.91
2023-04-18T18:53:35.819Z,62.24
2023-04-18T18:58:26.773Z,62.92
2023-04-18T19:03:20.360Z,62.87
2023-04-18T19:08:12.678Z,63.62
2023-04-18T19:13:05.196Z,63.65
2023-04-18T19:17:55.111Z,63.75
2023-04-18T19:22:45.006Z,64.08
2023-04-18T19:27:35.324Z,64.51
2023-04-18T19:32:28.012Z,64.69
2023-04-18T19:37:19.054Z,64.96
2023-04-18T19:42:08.981Z,65.52
2023-04-18T19:46:58.973Z,65.95
2023-04-18T19:51:53.714Z,66.71
2023-04-18T19:56:43.969Z,67.45
2023-04-18T20:01:33.794Z,67.77
2023-04-18T20:06:25.409Z,67.94
2023-04-18T20:11:17.878Z,68.23
2023-04-18T20:16:08.982Z,68.01
2023-04-18T20:20:58.951Z,68.60
2023-04-18T20:25:48.764Z,68.81
2023-04-18T20:30:44.875Z,69.44
2023-04-18T20:35:34.853Z,69.51
2023-04-18T20:40:25.780Z,69.93
2023-04-18T20:45:16.341Z,69.85
2023-04-18T20:50:11.148Z,69.55
2023-04-18T20:55:01.273Z,69.40
2023-04-18T20:59:51.130Z,69.58
2023-04-18T21:04:41.235Z,69.90
2023-04-18T21:09:36.731Z,70.49
2023-04-18T21:14:26.783Z,70.38
2023-04-18T21:19:16.640Z,70.37
2023-04-18T21:24:06.998Z,69.71
2023-04-18T21:29:02.090Z,69.47
2023-04-18T21:33:55.224Z,69.32
2023-04-18T21:38:45.125Z,69.17
2023-04-18T21:43:35.097Z,69.71
2023-04-18T21:48:28.921Z,69.77
2023-04-18T21:53:19.195Z,69.93
2023-04-18T21:58:09.561Z,70.25
2023-04-18T22:03:02.100Z,70.41
2023-04-18T22:07:58.393Z,70.67
2023-04-18T22:12:48.758Z,70.98
2023-04-18T22:17:38.911Z,71.52
2023-04-18T22:22:28.803Z,71.88
2023-04-18T22:27:21.304Z,72.48
2023-04-18T22:32:12.094Z,72.50
2023-04-18T22:37:01.998Z,72.25
2023-04-18T22:41:52.017Z,72.52
2023-04-18T22:46:48.320Z,72.62
2023-04-18T22:51:38.385Z,72.87
2023-04-18T22:56:29.849Z,73.08
2023-04-18T23:01:19.792Z,72.93
2023-04-18T23:06:12.504Z,73.12
2023-04-18T23:11:02.398Z,73.17
2023-04-18T23:15:53.918Z,73.17
2023-04-18T23:20:43.726Z,73.71
2023-04-18T23:25:37.580Z,74.08
2023-04-18T23:30:28.329Z,73.93
2023-04-18T23:35:18.252Z,74.15
2023-04-18T23:40:09.888Z,74.21
2023-04-18T23:45:03.766Z,74.67
2023-04-18T23:49:53.769Z,74.38
2023-04-18T23:54:43.571Z,74.61
2023-04-18T23:59:33.701Z,74.88
